Terminal Aerodrome Forecast
Issued by NWS Cleveland, OH

Home | Current Version | Previous Version | Graphics & Text | Print | Product List | Glossary On
Versions: 1 2 3 4 5 6 7 8 9 10 11 12 13 14 15 16 17 18 19 20 21 22 23 24 25 26 27 28 29 30 31
000
FTUS41 KCLE 072100 AAA
TAFCLE
TAF AMD
KCLE 072105Z 0721/0824 22015G25KT P6SM SCT025 BKN035
     FM072300 22010G20KT P6SM VCSH SCT025 BKN035
     FM080300 24010KT P6SM BKN045
     FM080900 19008KT 5SM BR SCT020 BKN200
     FM081300 22012KT 6SM BR VCSH BKN035 OVC080
      TEMPO 0815/0818 3SM -TSRA BR SCT019 OVC035CB
     FM082100 26015KT P6SM BKN035 OVC100=

USA.gov is the U.S. government's official web portal to all federal, state and local government web resources and services.